createdAt,value
2022-10-01T00:00:39.000Z,10.40
2022-10-01T00:01:39.059Z,11.60
2022-10-01T00:02:38.956Z,17.70
2022-10-01T00:03:38.908Z,23.90
2022-10-01T00:04:38.968Z,26.00
2022-10-01T00:05:38.887Z,25.10
2022-10-01T00:06:38.927Z,18.00
2022-10-01T00:07:38.904Z,19.30
2022-10-01T00:08:38.860Z,17.30
2022-10-01T00:09:38.849Z,15.60
2022-10-01T00:10:38.858Z,15.20
2022-10-01T00:11:38.889Z,16.60
2022-10-01T00:12:38.865Z,16.00
2022-10-01T00:13:38.856Z,13.20
2022-10-01T00:14:38.826Z,15.70
2022-10-01T00:15:38.803Z,15.50
2022-10-01T00:16:38.843Z,14.70
2022-10-01T00:17:38.816Z,15.90
2022-10-01T00:18:38.804Z,16.60
2022-10-01T00:19:38.752Z,13.50
2022-10-01T00:20:38.796Z,15.90
2022-10-01T00:21:38.746Z,17.10
2022-10-01T00:22:38.734Z,14.00
2022-10-01T00:23:38.783Z,13.40
2022-10-01T00:24:38.743Z,13.40
2022-10-01T00:25:38.690Z,13.00
2022-10-01T00:26:38.679Z,14.00
2022-10-01T00:27:38.737Z,17.10
2022-10-01T00:28:38.665Z,16.00
2022-10-01T00:29:38.714Z,12.50
2022-10-01T00:30:40.511Z,15.30
2022-10-01T00:31:39.084Z,15.30
2022-10-01T00:32:38.652Z,14.50
2022-10-01T00:33:38.609Z,11.90
2022-10-01T00:34:38.607Z,16.90
2022-10-01T00:35:38.690Z,15.10
2022-10-01T00:36:38.591Z,14.10
2022-10-01T00:37:38.578Z,12.90
2022-10-01T00:38:38.557Z,16.10
2022-10-01T00:39:38.597Z,17.00
2022-10-01T00:40:38.547Z,13.90
2022-10-01T00:41:38.597Z,16.10
2022-10-01T00:42:38.595Z,14.00
2022-10-01T00:43:38.512Z,15.60
2022-10-01T00:44:38.548Z,14.10
2022-10-01T00:45:38.595Z,13.10
2022-10-01T00:46:38.482Z,11.80
2022-10-01T00:47:38.512Z,11.70
2022-10-01T00:48:38.522Z,12.60
2022-10-01T00:49:38.504Z,12.40
2022-10-01T00:50:38.444Z,13.70
2022-10-01T00:51:38.461Z,13.00
2022-10-01T00:52:38.423Z,12.60
2022-10-01T00:53:38.410Z,15.80
2022-10-01T00:54:38.409Z,13.20
2022-10-01T00:55:38.432Z,11.20
2022-10-01T00:56:38.376Z,16.00
2022-10-01T00:57:38.359Z,16.90
2022-10-01T00:58:38.361Z,11.50
2022-10-01T00:59:38.415Z,12.90
2022-10-01T01:00:38.388Z,11.00
2022-10-01T01:01:38.508Z,13.70
2022-10-01T01:02:38.450Z,11.90
2022-10-01T01:03:38.299Z,12.20
2022-10-01T01:04:38.418Z,12.60
2022-10-01T01:05:38.348Z,11.90
2022-10-01T01:06:38.325Z,14.20
2022-10-01T01:07:38.284Z,12.20
2022-10-01T01:08:38.260Z,11.40
2022-10-01T01:09:38.248Z,11.20
2022-10-01T01:10:38.243Z,10.50
2022-10-01T01:11:38.265Z,11.70
2022-10-01T01:12:38.260Z,11.10
2022-10-01T01:13:38.260Z,13.20
2022-10-01T01:14:38.233Z,13.50
2022-10-01T01:15:38.296Z,15.00
2022-10-01T01:16:38.195Z,14.30
2022-10-01T01:17:38.184Z,12.50
2022-10-01T01:18:38.190Z,12.60
2022-10-01T01:19:38.168Z,11.60
2022-10-01T01:20:38.177Z,14.50
2022-10-01T01:21:38.186Z,13.00
2022-10-01T01:22:38.175Z,11.20
2022-10-01T01:23:38.113Z,15.70
2022-10-01T01:24:38.203Z,10.90
2022-10-01T01:25:38.128Z,11.90
2022-10-01T01:26:38.128Z,16.60
2022-10-01T01:27:38.083Z,13.00
2022-10-01T01:28:38.070Z,12.60
2022-10-01T01:29:38.041Z,15.70
2022-10-01T01:30:38.047Z,15.10
2022-10-01T01:31:38.374Z,15.20
2022-10-01T01:32:38.054Z,13.50
2022-10-01T01:33:37.999Z,11.80
2022-10-01T01:34:38.002Z,11.70
2022-10-01T01:35:38.024Z,13.10
2022-10-01T01:36:37.985Z,13.10
2022-10-01T01:37:37.969Z,13.30
2022-10-01T01:38:38.001Z,12.40
2022-10-01T01:39:37.977Z,14.50
2022-10-01T01:40:37.945Z,12.20
2022-10-01T01:41:37.927Z,12.50
2022-10-01T01:42:37.924Z,13.80
2022-10-01T01:43:37.956Z,12.80
2022-10-01T01:44:37.894Z,13.30
2022-10-01T01:45:37.928Z,14.30
2022-10-01T01:46:37.874Z,15.00
2022-10-01T01:47:37.860Z,11.90
2022-10-01T01:48:37.910Z,15.40
2022-10-01T01:49:37.894Z,11.80
2022-10-01T01:50:37.877Z,14.80
2022-10-01T01:51:37.823Z,12.70
2022-10-01T01:52:37.820Z,16.60
2022-10-01T01:53:37.822Z,12.80
2022-10-01T01:54:37.847Z,15.30
2022-10-01T01:55:37.809Z,11.70
2022-10-01T01:56:37.789Z,15.30
2022-10-01T01:57:37.785Z,12.50
2022-10-01T01:58:37.760Z,11.90
2022-10-01T01:59:37.745Z,14.50
2022-10-01T02:00:37.796Z,11.20
2022-10-01T02:01:38.267Z,12.60
2022-10-01T02:02:37.782Z,11.40
2022-10-01T02:03:37.705Z,12.30
2022-10-01T02:04:38.332Z,13.70
2022-10-01T02:05:37.727Z,9.90
2022-10-01T02:06:37.678Z,15.20
2022-10-01T02:07:37.680Z,11.70
2022-10-01T02:08:37.651Z,11.90
2022-10-01T02:09:37.701Z,11.90
2022-10-01T02:10:37.635Z,10.80
2022-10-01T02:11:37.618Z,10.70
2022-10-01T02:12:37.617Z,14.40
2022-10-01T02:13:37.653Z,12.60
2022-10-01T02:14:37.620Z,12.70
2022-10-01T02:15:37.620Z,11.10
2022-10-01T02:16:37.575Z,10.80
2022-10-01T02:17:37.593Z,11.40
2022-10-01T02:18:37.619Z,13.50
2022-10-01T02:19:37.570Z,12.50
2022-10-01T02:20:37.573Z,12.80
2022-10-01T02:21:37.557Z,11.90
2022-10-01T02:22:37.556Z,14.30
2022-10-01T02:23:37.548Z,11.30
2022-10-01T02:24:37.542Z,11.50
2022-10-01T02:25:37.488Z,10.30
2022-10-01T02:26:37.523Z,12.10
2022-10-01T02:27:37.464Z,11.20
2022-10-01T02:28:37.464Z,9.90
2022-10-01T02:29:37.505Z,14.30
2022-10-01T02:30:37.477Z,12.00
2022-10-01T02:31:37.797Z,13.20
2022-10-01T02:32:37.422Z,14.00
2022-10-01T02:33:37.465Z,10.30
2022-10-01T02:34:37.389Z,13.10
2022-10-01T02:35:37.409Z,13.10
2022-10-01T02:36:37.372Z,13.50
2022-10-01T02:37:37.383Z,13.80
2022-10-01T02:38:37.346Z,13.40
2022-10-01T02:39:37.408Z,10.90
2022-10-01T02:40:37.344Z,12.20
2022-10-01T02:41:37.325Z,10.20
2022-10-01T02:42:37.380Z,10.70
2022-10-01T02:43:40.678Z,12.90
2022-10-01T02:44:37.362Z,15.10
2022-10-01T02:45:37.371Z,13.30
2022-10-01T02:46:37.277Z,12.60
2022-10-01T02:47:37.264Z,12.00
2022-10-01T02:48:37.299Z,11.80
2022-10-01T02:49:37.270Z,13.40
2022-10-01T02:50:37.276Z,13.50
2022-10-01T02:51:37.302Z,13.30
2022-10-01T02:52:37.221Z,12.60
2022-10-01T02:53:37.222Z,14.30
2022-10-01T02:54:37.299Z,13.40
2022-10-01T02:55:37.205Z,15.90
2022-10-01T02:56:37.217Z,14.70
2022-10-01T02:57:37.210Z,15.50
2022-10-01T02:58:37.164Z,16.60
2022-10-01T02:59:37.158Z,14.50
2022-10-01T03:00:37.182Z,22.00
2022-10-01T03:01:37.587Z,18.50
2022-10-01T03:02:37.201Z,15.30
2022-10-01T03:03:37.096Z,18.40
2022-10-01T03:04:37.093Z,17.30
2022-10-01T03:05:37.122Z,15.60
2022-10-01T03:06:37.076Z,29.00
2022-10-01T03:07:37.136Z,20.90
2022-10-01T03:08:37.042Z,16.50
2022-10-01T03:09:37.035Z,12.30
2022-10-01T03:10:37.032Z,13.40
2022-10-01T03:11:37.094Z,15.00
2022-10-01T03:12:37.007Z,14.60
2022-10-01T03:13:37.055Z,12.70
2022-10-01T03:14:36.984Z,13.70
2022-10-01T03:15:37.007Z,14.30
2022-10-01T03:16:36.972Z,10.90
2022-10-01T03:17:37.082Z,14.40
2022-10-01T03:18:37.006Z,13.10
2022-10-01T03:19:36.937Z,12.20
2022-10-01T03:20:37.020Z,12.60
2022-10-01T03:21:37.038Z,10.30
2022-10-01T03:22:36.955Z,11.60
2022-10-01T03:23:36.930Z,11.60
2022-10-01T03:24:36.887Z,12.90
2022-10-01T03:25:36.883Z,11.60
2022-10-01T03:26:36.908Z,11.80
2022-10-01T03:27:36.913Z,11.50
2022-10-01T03:28:36.850Z,14.00
2022-10-01T03:29:36.850Z,12.00
2022-10-01T03:30:36.873Z,13.10
2022-10-01T03:31:37.406Z,14.50
2022-10-01T03:32:36.819Z,14.30
2022-10-01T03:33:36.852Z,12.80
2022-10-01T03:34:36.787Z,10.80
2022-10-01T03:35:36.814Z,13.20
2022-10-01T03:36:36.764Z,15.50
2022-10-01T03:37:36.763Z,13.70
2022-10-01T03:38:36.810Z,13.90
2022-10-01T03:39:36.737Z,16.30
2022-10-01T03:40:36.772Z,14.20
2022-10-01T03:41:36.939Z,13.30
2022-10-01T03:42:36.790Z,12.60
2022-10-01T03:43:36.698Z,9.40
2022-10-01T03:44:36.690Z,15.00
2022-10-01T03:45:36.707Z,11.60
2022-10-01T03:46:36.728Z,10.20
2022-10-01T03:47:36.668Z,12.60
2022-10-01T03:48:36.652Z,12.20
2022-10-01T03:49:36.683Z,14.10
2022-10-01T03:50:36.674Z,13.00
2022-10-01T03:51:37.061Z,14.50
2022-10-01T03:52:36.611Z,12.50
2022-10-01T03:53:36.642Z,15.40
2022-10-01T03:54:36.592Z,11.90
2022-10-01T03:55:36.634Z,9.50
2022-10-01T03:56:36.628Z,12.10
2022-10-01T03:57:36.622Z,12.80
2022-10-01T03:58:36.570Z,13.40
2022-10-01T03:59:36.593Z,12.60
2022-10-01T04:00:36.521Z,14.00
2022-10-01T04:01:36.917Z,13.20
2022-10-01T04:02:36.664Z,12.60
2022-10-01T04:03:36.503Z,13.80
2022-10-01T04:04:36.492Z,13.50
2022-10-01T04:05:36.548Z,11.80
2022-10-01T04:06:36.481Z,11.30
2022-10-01T04:07:36.461Z,12.70
2022-10-01T04:08:36.450Z,13.60
2022-10-01T04:09:36.540Z,12.80
2022-10-01T04:10:36.491Z,15.80
2022-10-01T04:11:36.810Z,14.50
2022-10-01T04:12:36.449Z,11.80
2022-10-01T04:13:36.401Z,10.60
2022-10-01T04:14:36.389Z,13.80
2022-10-01T04:15:36.386Z,13.20
2022-10-01T04:16:36.572Z,12.60
2022-10-01T04:17:36.428Z,15.40
2022-10-01T04:18:36.371Z,13.30
2022-10-01T04:19:36.393Z,12.10
2022-10-01T04:20:36.333Z,14.30
2022-10-01T04:21:36.680Z,15.20
2022-10-01T04:22:36.306Z,16.50
2022-10-01T04:23:36.368Z,13.80
2022-10-01T04:24:36.287Z,16.70
2022-10-01T04:25:36.271Z,13.50
2022-10-01T04:26:36.303Z,14.30
2022-10-01T04:27:36.309Z,15.70
2022-10-01T04:28:36.303Z,13.50
2022-10-01T04:29:40.067Z,15.40
2022-10-01T04:30:36.218Z,16.90
2022-10-01T04:31:36.568Z,13.80
2022-10-01T04:32:36.222Z,19.80
2022-10-01T04:33:36.248Z,15.30
2022-10-01T04:34:36.180Z,15.30
2022-10-01T04:35:36.180Z,15.50
2022-10-01T04:36:36.171Z,15.90
2022-10-01T04:37:36.201Z,13.40
2022-10-01T04:38:36.158Z,12.00
2022-10-01T04:39:36.137Z,14.90
2022-10-01T04:40:36.140Z,16.20
2022-10-01T04:41:36.328Z,12.40
2022-10-01T04:42:36.154Z,16.90
2022-10-01T04:43:36.124Z,12.40
2022-10-01T04:44:36.087Z,13.50
2022-10-01T04:45:36.096Z,15.20
2022-10-01T04:46:36.180Z,12.70
2022-10-01T04:47:37.729Z,13.60
2022-10-01T04:48:36.043Z,11.60
2022-10-01T04:49:36.055Z,11.80
2022-10-01T04:50:36.040Z,13.70
2022-10-01T04:51:36.297Z,13.70
2022-10-01T04:52:36.002Z,13.00
2022-10-01T04:53:36.050Z,12.10
2022-10-01T04:54:35.941Z,13.80
2022-10-01T04:55:35.929Z,11.70
2022-10-01T04:56:35.999Z,13.20
2022-10-01T04:57:35.908Z,11.90
2022-10-01T04:58:35.892Z,14.10
2022-10-01T04:59:35.938Z,14.00
2022-10-01T05:00:35.917Z,11.20
2022-10-01T05:01:36.333Z,11.00
2022-10-01T05:02:35.905Z,10.80
2022-10-01T05:03:35.844Z,13.20
2022-10-01T05:04:35.876Z,12.50
2022-10-01T05:05:35.821Z,12.00
2022-10-01T05:06:35.800Z,9.80
2022-10-01T05:07:35.794Z,12.80
2022-10-01T05:08:35.835Z,10.00
2022-10-01T05:09:35.785Z,9.80
2022-10-01T05:10:35.776Z,11.20
2022-10-01T05:11:36.271Z,11.80
2022-10-01T05:12:35.744Z,11.20
2022-10-01T05:13:35.750Z,15.20
2022-10-01T05:14:35.788Z,10.50
2022-10-01T05:15:35.770Z,11.40
2022-10-01T05:16:35.899Z,10.70
2022-10-01T05:17:35.814Z,11.70
2022-10-01T05:18:35.791Z,11.20
2022-10-01T05:19:35.828Z,14.20
2022-10-01T05:20:35.789Z,12.60
2022-10-01T05:21:35.927Z,14.70
2022-10-01T05:22:35.640Z,12.80
2022-10-01T05:23:35.744Z,11.80
2022-10-01T05:24:35.617Z,10.20
2022-10-01T05:25:35.618Z,12.90
2022-10-01T05:26:35.647Z,12.20
2022-10-01T05:27:35.597Z,12.10
2022-10-01T05:28:35.680Z,12.80
2022-10-01T05:29:35.643Z,11.20
2022-10-01T05:30:35.615Z,15.60
2022-10-01T05:31:35.944Z,11.60
2022-10-01T05:32:35.540Z,10.60
2022-10-01T05:33:35.564Z,11.70
2022-10-01T05:34:35.517Z,9.30
2022-10-01T05:35:35.518Z,10.20
2022-10-01T05:36:35.556Z,12.80
2022-10-01T05:37:35.498Z,12.20
2022-10-01T05:38:35.490Z,9.60
2022-10-01T05:39:35.473Z,15.90
2022-10-01T05:40:35.526Z,12.80
2022-10-01T05:41:35.765Z,13.00
2022-10-01T05:42:35.442Z,15.60
2022-10-01T05:43:35.432Z,12.50
2022-10-01T05:44:35.427Z,10.40
2022-10-01T05:45:35.471Z,12.90
2022-10-01T05:46:35.452Z,14.60
2022-10-01T05:47:35.438Z,12.90
2022-10-01T05:48:35.390Z,15.90
2022-10-01T05:49:35.376Z,13.10
2022-10-01T05:50:35.360Z,11.30
2022-10-01T05:51:35.629Z,12.40
2022-10-01T05:52:35.339Z,12.20
2022-10-01T05:53:35.381Z,12.40
2022-10-01T05:54:35.326Z,10.00
2022-10-01T05:55:35.329Z,14.40
2022-10-01T05:56:35.340Z,12.20
2022-10-01T05:57:35.291Z,15.40
2022-10-01T05:58:35.332Z,12.90
2022-10-01T05:59:35.309Z,11.90
2022-10-01T06:00:35.260Z,11.50
2022-10-01T06:01:35.571Z,12.80
2022-10-01T06:02:35.455Z,11.00
2022-10-01T06:03:35.229Z,12.90
2022-10-01T06:04:40.320Z,13.70
2022-10-01T06:05:35.233Z,13.80
2022-10-01T06:06:35.204Z,11.50
2022-10-01T06:07:35.194Z,12.00
2022-10-01T06:08:35.222Z,12.20
2022-10-01T06:09:35.174Z,15.60
2022-10-01T06:10:35.201Z,12.40
2022-10-01T06:11:35.565Z,13.20
2022-10-01T06:12:35.148Z,13.00
2022-10-01T06:13:35.146Z,11.70
2022-10-01T06:14:35.121Z,13.80
2022-10-01T06:15:35.152Z,14.40
2022-10-01T06:16:35.229Z,13.30
2022-10-01T06:17:35.102Z,13.50
2022-10-01T06:18:35.074Z,12.00
2022-10-01T06:19:35.075Z,14.20
2022-10-01T06:20:35.066Z,11.40
2022-10-01T06:21:35.499Z,12.40
2022-10-01T06:22:35.042Z,13.80
2022-10-01T06:23:35.068Z,12.70
2022-10-01T06:24:35.023Z,12.30
2022-10-01T06:25:35.083Z,11.30
2022-10-01T06:26:35.070Z,14.70
2022-10-01T06:27:34.996Z,12.50
2022-10-01T06:28:35.027Z,13.70
2022-10-01T06:29:35.007Z,11.90
2022-10-01T06:30:35.013Z,13.90
2022-10-01T06:31:35.261Z,13.90
2022-10-01T06:32:35.297Z,12.50
2022-10-01T06:33:34.980Z,9.90
2022-10-01T06:34:34.933Z,12.70
2022-10-01T06:35:34.928Z,14.50
2022-10-01T06:36:34.951Z,12.10
2022-10-01T06:37:34.887Z,10.90
2022-10-01T06:38:34.902Z,13.50
2022-10-01T06:39:34.867Z,12.20
2022-10-01T06:40:34.910Z,15.50
2022-10-01T06:41:35.252Z,12.40
2022-10-01T06:42:34.890Z,14.00
2022-10-01T06:43:34.830Z,13.70
2022-10-01T06:44:34.822Z,15.10
2022-10-01T06:45:34.853Z,15.10
2022-10-01T06:46:34.839Z,11.50
2022-10-01T06:47:34.792Z,12.50
2022-10-01T06:48:34.786Z,11.10
2022-10-01T06:49:34.822Z,11.60
2022-10-01T06:50:34.773Z,13.00
2022-10-01T06:51:35.100Z,12.80
2022-10-01T06:52:34.749Z,11.50
2022-10-01T06:53:34.729Z,12.90
2022-10-01T06:54:34.763Z,10.10
2022-10-01T06:55:34.932Z,15.90
2022-10-01T06:56:34.720Z,11.30
2022-10-01T06:57:34.682Z,16.80
2022-10-01T06:58:34.683Z,13.00
2022-10-01T06:59:34.746Z,13.80
2022-10-01T07:00:34.663Z,16.60
2022-10-01T07:01:35.043Z,14.10
2022-10-01T07:02:34.693Z,13.20
2022-10-01T07:03:34.624Z,13.90
2022-10-01T07:04:34.666Z,23.40
2022-10-01T07:05:34.607Z,13.70
2022-10-01T07:06:34.612Z,19.00
2022-10-01T07:07:34.586Z,13.50
2022-10-01T07:08:34.601Z,11.90
2022-10-01T07:09:34.563Z,12.70
2022-10-01T07:10:34.602Z,11.40
2022-10-01T07:11:35.002Z,12.30
2022-10-01T07:12:34.535Z,16.70
2022-10-01T07:13:34.523Z,13.00
2022-10-01T07:14:34.586Z,12.20
2022-10-01T07:15:34.547Z,13.60
2022-10-01T07:16:34.582Z,12.30
2022-10-01T07:17:34.547Z,14.00
2022-10-01T07:18:34.486Z,14.60
2022-10-01T07:19:34.474Z,12.50
2022-10-01T07:20:34.459Z,14.40
2022-10-01T07:21:34.642Z,13.40
2022-10-01T07:22:34.497Z,12.80
2022-10-01T07:23:34.493Z,13.80
2022-10-01T07:24:34.422Z,13.20
2022-10-01T07:25:34.406Z,12.80
2022-10-01T07:26:34.450Z,13.30
2022-10-01T07:27:34.386Z,11.10
2022-10-01T07:28:34.441Z,12.10
2022-10-01T07:29:34.384Z,12.20
2022-10-01T07:30:34.355Z,14.40
2022-10-01T07:31:34.782Z,13.00
2022-10-01T07:32:34.375Z,11.70
2022-10-01T07:33:34.324Z,13.00
2022-10-01T07:34:34.371Z,12.60
2022-10-01T07:35:34.309Z,11.10
2022-10-01T07:36:34.313Z,11.60
2022-10-01T07:37:34.283Z,14.30
2022-10-01T07:38:34.329Z,12.30
2022-10-01T07:39:34.268Z,11.80
2022-10-01T07:40:34.258Z,14.70
2022-10-01T07:41:34.598Z,11.60
2022-10-01T07:42:34.282Z,11.90
2022-10-01T07:43:34.273Z,11.00
2022-10-01T07:44:34.220Z,11.60
2022-10-01T07:45:34.251Z,11.00
2022-10-01T07:46:34.922Z,9.80
2022-10-01T07:47:34.180Z,9.30
2022-10-01T07:48:34.176Z,10.10
2022-10-01T07:49:34.158Z,12.40
2022-10-01T07:50:34.155Z,7.50
2022-10-01T07:51:34.546Z,11.80
2022-10-01T07:52:34.340Z,10.90
2022-10-01T07:53:34.123Z,10.20
2022-10-01T07:54:34.135Z,12.70
2022-10-01T07:55:34.102Z,11.50
2022-10-01T07:56:34.145Z,10.80
2022-10-01T07:57:34.129Z,10.10
2022-10-01T07:58:34.082Z,9.60
2022-10-01T07:59:34.084Z,9.50
2022-10-01T08:00:34.063Z,11.60
2022-10-01T08:01:34.486Z,9.90
2022-10-01T08:02:34.129Z,12.90
2022-10-01T08:03:34.021Z,12.70
2022-10-01T08:04:34.031Z,12.30
2022-10-01T08:05:34.004Z,10.50
2022-10-01T08:06:33.994Z,12.70
2022-10-01T08:07:34.076Z,12.00
2022-10-01T08:08:34.024Z,11.40
2022-10-01T08:09:33.960Z,14.40
2022-10-01T08:10:33.958Z,15.10
2022-10-01T08:11:34.241Z,13.00
2022-10-01T08:12:33.933Z,18.90
2022-10-01T08:13:33.921Z,13.00
2022-10-01T08:14:33.911Z,14.00
2022-10-01T08:15:33.949Z,8.80
2022-10-01T08:16:33.995Z,11.20
2022-10-01T08:17:33.905Z,12.90
2022-10-01T08:18:33.884Z,11.40
2022-10-01T08:19:33.859Z,11.20
2022-10-01T08:20:33.915Z,9.50
2022-10-01T08:21:34.162Z,11.60
2022-10-01T08:22:35.762Z,9.30
2022-10-01T08:23:33.817Z,8.40
2022-10-01T08:24:33.849Z,10.30
2022-10-01T08:25:33.841Z,8.60
2022-10-01T08:26:33.840Z,8.00
2022-10-01T08:27:33.776Z,9.80
2022-10-01T08:28:33.773Z,7.90
2022-10-01T08:29:33.782Z,10.40
2022-10-01T08:30:33.762Z,8.30
2022-10-01T08:31:34.110Z,8.30
2022-10-01T08:32:33.727Z,9.40
2022-10-01T08:33:33.769Z,7.40
2022-10-01T08:34:33.757Z,9.20
2022-10-01T08:35:33.782Z,8.40
2022-10-01T08:36:33.736Z,8.90
2022-10-01T08:37:33.682Z,8.20
2022-10-01T08:38:33.725Z,6.10
2022-10-01T08:39:33.758Z,7.70
2022-10-01T08:40:33.699Z,7.90
2022-10-01T08:41:33.752Z,6.60
2022-10-01T08:42:33.638Z,6.60
2022-10-01T08:43:33.616Z,8.30
2022-10-01T08:44:33.689Z,5.30
2022-10-01T08:45:33.635Z,5.90
2022-10-01T08:46:33.588Z,7.60
2022-10-01T08:47:33.574Z,6.20
2022-10-01T08:48:33.590Z,7.80
2022-10-01T08:49:33.556Z,6.40
2022-10-01T08:50:33.620Z,7.80
2022-10-01T08:51:33.809Z,7.60
2022-10-01T08:52:33.567Z,6.50
2022-10-01T08:53:33.514Z,6.50
2022-10-01T08:54:33.556Z,7.60
2022-10-01T08:55:33.509Z,5.70
2022-10-01T08:56:34.499Z,4.40
2022-10-01T08:57:33.475Z,4.60
2022-10-01T08:58:33.524Z,5.70
2022-10-01T08:59:33.462Z,5.70
2022-10-01T09:00:33.829Z,7.40
2022-10-01T09:01:34.343Z,5.00
2022-10-01T09:02:33.848Z,5.90
2022-10-01T09:03:33.563Z,5.80
2022-10-01T09:04:33.640Z,6.60
2022-10-01T09:05:33.443Z,6.40
2022-10-01T09:06:33.405Z,6.10
2022-10-01T09:07:33.372Z,6.00
2022-10-01T09:08:33.367Z,5.30
2022-10-01T09:09:33.654Z,5.60
2022-10-01T09:10:33.594Z,6.30
2022-10-01T09:11:33.601Z,4.90
2022-10-01T09:12:33.334Z,6.00
2022-10-01T09:13:33.312Z,5.20
2022-10-01T09:14:33.631Z,5.00
2022-10-01T09:15:33.297Z,7.40
2022-10-01T09:16:33.398Z,4.80
2022-10-01T09:17:33.283Z,5.80
2022-10-01T09:18:33.278Z,5.60
2022-10-01T09:19:33.255Z,3.90
2022-10-01T09:20:33.318Z,4.50
2022-10-01T09:21:33.638Z,4.10
2022-10-01T09:22:33.270Z,4.10
2022-10-01T09:23:33.226Z,4.30
2022-10-01T09:24:33.219Z,3.20
2022-10-01T09:25:33.304Z,4.60
2022-10-01T09:26:33.205Z,4.40
2022-10-01T09:27:33.268Z,4.20
2022-10-01T09:28:33.319Z,4.80
2022-10-01T09:29:33.186Z,4.10
2022-10-01T09:30:33.182Z,4.20
2022-10-01T09:31:33.506Z,5.30
2022-10-01T09:32:33.162Z,4.80
2022-10-01T09:33:33.146Z,5.50
2022-10-01T09:34:33.144Z,4.80
2022-10-01T09:35:33.118Z,6.40
2022-10-01T09:36:33.168Z,4.30
2022-10-01T09:37:33.102Z,5.10
2022-10-01T09:38:33.115Z,3.60
2022-10-01T09:39:33.077Z,3.60
2022-10-01T09:40:33.088Z,5.60
2022-10-01T09:41:33.425Z,3.50
2022-10-01T09:42:33.068Z,3.90
2022-10-01T09:43:33.054Z,2.70
2022-10-01T09:44:33.083Z,2.70
2022-10-01T09:45:33.080Z,4.30
2022-10-01T09:46:33.038Z,5.30
2022-10-01T09:47:33.042Z,4.40
2022-10-01T09:48:32.996Z,3.10
2022-10-01T09:49:33.049Z,3.60
2022-10-01T09:50:32.968Z,3.30
2022-10-01T09:51:35.925Z,3.60
2022-10-01T09:52:33.027Z,3.40
2022-10-01T09:53:32.931Z,5.40
2022-10-01T09:54:32.946Z,4.70
2022-10-01T09:55:32.923Z,4.00
2022-10-01T09:56:32.908Z,3.70
2022-10-01T09:57:32.967Z,2.40
2022-10-01T09:58:33.031Z,4.40
2022-10-01T09:59:32.911Z,3.70
2022-10-01T10:00:32.878Z,3.00
2022-10-01T10:01:33.139Z,3.70
2022-10-01T10:02:32.978Z,3.30
2022-10-01T10:03:33.058Z,4.10
2022-10-01T10:04:32.889Z,4.40
2022-10-01T10:05:32.842Z,2.80
2022-10-01T10:06:33.172Z,4.10
2022-10-01T10:07:32.803Z,3.40
2022-10-01T10:08:32.875Z,4.10
2022-10-01T10:09:32.764Z,4.30
2022-10-01T10:10:32.779Z,3.50
2022-10-01T10:11:33.112Z,2.10
2022-10-01T10:12:32.765Z,5.30
2022-10-01T10:13:32.738Z,3.50
2022-10-01T10:14:32.780Z,2.90
2022-10-01T10:15:32.797Z,4.70
2022-10-01T10:16:33.062Z,4.70
2022-10-01T10:17:32.726Z,2.80
2022-10-01T10:18:32.730Z,3.90
2022-10-01T10:19:32.678Z,3.00
2022-10-01T10:20:32.728Z,2.60
2022-10-01T10:21:32.709Z,4.20
2022-10-01T10:22:32.684Z,4.50
2022-10-01T10:23:32.678Z,2.50
2022-10-01T10:24:32.691Z,3.20
2022-10-01T10:25:32.646Z,3.30
2022-10-01T10:26:33.118Z,3.80
2022-10-01T10:27:32.668Z,4.20
2022-10-01T10:28:36.448Z,3.40
2022-10-01T10:29:32.618Z,2.70
2022-10-01T10:30:32.610Z,3.30
2022-10-01T10:31:32.588Z,3.50
2022-10-01T10:32:32.521Z,5.80
2022-10-01T10:33:32.524Z,3.90
2022-10-01T10:34:32.573Z,3.70
2022-10-01T10:35:32.552Z,3.70
2022-10-01T10:36:32.673Z,2.80
2022-10-01T10:37:32.561Z,4.10
2022-10-01T10:38:32.470Z,3.60
2022-10-01T10:39:32.481Z,11.30
2022-10-01T10:40:32.512Z,7.80
2022-10-01T10:41:32.768Z,4.50
2022-10-01T10:42:32.468Z,3.30
2022-10-01T10:43:32.422Z,3.70
2022-10-01T10:44:32.405Z,2.20
2022-10-01T10:45:32.388Z,1.90
2022-10-01T10:46:32.441Z,2.20
2022-10-01T10:47:32.379Z,4.30
2022-10-01T10:48:32.429Z,8.80
2022-10-01T10:49:32.405Z,4.40
2022-10-01T10:50:32.348Z,3.30
2022-10-01T10:51:32.658Z,2.80
2022-10-01T10:52:32.375Z,2.90
2022-10-01T10:53:32.369Z,2.50
2022-10-01T10:54:32.346Z,3.60
2022-10-01T10:55:32.343Z,3.10
2022-10-01T10:56:32.595Z,2.40
2022-10-01T10:57:32.341Z,3.50
2022-10-01T10:58:32.257Z,4.00
2022-10-01T10:59:32.265Z,2.90
2022-10-01T11:00:32.249Z,2.10
2022-10-01T11:01:32.592Z,6.00
2022-10-01T11:02:32.310Z,2.70
2022-10-01T11:03:32.219Z,2.60
2022-10-01T11:04:32.228Z,3.70
2022-10-01T11:05:32.251Z,3.10
2022-10-01T11:06:32.399Z,2.90
2022-10-01T11:07:32.224Z,2.20
2022-10-01T11:08:32.171Z,5.10
2022-10-01T11:09:32.172Z,3.10
2022-10-01T11:10:32.141Z,5.00
2022-10-01T11:11:32.173Z,2.80
2022-10-01T11:12:32.172Z,4.30
2022-10-01T11:13:32.153Z,3.10
2022-10-01T11:14:32.109Z,3.80
2022-10-01T11:15:32.174Z,2.60
2022-10-01T11:16:32.583Z,3.70
2022-10-01T11:17:32.080Z,2.60
2022-10-01T11:18:32.097Z,2.60
2022-10-01T11:19:32.099Z,2.80
2022-10-01T11:20:32.046Z,2.90
2022-10-01T11:21:32.083Z,2.70
2022-10-01T11:22:32.079Z,2.40
2022-10-01T11:23:32.103Z,3.70
2022-10-01T11:24:32.042Z,3.80
2022-10-01T11:25:31.988Z,4.60
2022-10-01T11:26:32.374Z,5.80
2022-10-01T11:27:31.979Z,3.60
2022-10-01T11:28:32.002Z,2.80
2022-10-01T11:29:32.049Z,2.70
2022-10-01T11:30:31.982Z,4.90
2022-10-01T11:31:32.035Z,2.40
2022-10-01T11:32:32.120Z,2.70
2022-10-01T11:33:31.934Z,1.90
2022-10-01T11:34:31.921Z,3.00
2022-10-01T11:35:31.932Z,2.10
2022-10-01T11:36:32.280Z,2.80
2022-10-01T11:37:31.874Z,4.40
2022-10-01T11:38:31.922Z,3.20
2022-10-01T11:39:31.931Z,2.50
2022-10-01T11:40:31.865Z,1.20
2022-10-01T11:41:31.844Z,2.50
2022-10-01T11:42:31.819Z,4.10
2022-10-01T11:43:31.858Z,3.60
2022-10-01T11:44:31.796Z,2.90
2022-10-01T11:45:31.800Z,2.60
2022-10-01T11:46:32.189Z,2.60
2022-10-01T11:47:31.835Z,3.30
2022-10-01T11:48:31.859Z,2.10
2022-10-01T11:49:31.834Z,2.90
2022-10-01T11:50:34.178Z,3.60
2022-10-01T11:51:31.778Z,3.50
2022-10-01T11:52:31.722Z,2.70
2022-10-01T11:53:31.719Z,3.00
2022-10-01T11:54:31.702Z,2.30
2022-10-01T11:55:31.689Z,2.50
2022-10-01T11:56:32.059Z,4.20
2022-10-01T11:57:31.689Z,2.40
2022-10-01T11:58:31.688Z,3.40
2022-10-01T11:59:31.686Z,3.70
2022-10-01T12:00:31.642Z,2.40
2022-10-01T12:01:31.801Z,3.40
2022-10-01T12:02:31.643Z,2.30
2022-10-01T12:03:31.658Z,3.30
2022-10-01T12:04:31.593Z,3.20
2022-10-01T12:05:31.820Z,2.90
2022-10-01T12:06:33.959Z,3.90
2022-10-01T12:07:31.611Z,3.40
2022-10-01T12:08:31.550Z,2.70
2022-10-01T12:09:31.653Z,2.80
2022-10-01T12:10:31.533Z,6.20
2022-10-01T12:11:31.577Z,2.60
2022-10-01T12:12:31.944Z,1.60
2022-10-01T12:13:31.510Z,2.70
2022-10-01T12:14:31.536Z,3.10
2022-10-01T12:15:31.491Z,3.20
2022-10-01T12:16:31.711Z,2.20
2022-10-01T12:17:31.475Z,5.50
2022-10-01T12:18:31.676Z,2.70
2022-10-01T12:19:31.470Z,4.10
2022-10-01T12:20:31.463Z,2.20
2022-10-01T12:21:31.509Z,4.80
2022-10-01T12:22:31.436Z,1.80
2022-10-01T12:23:31.444Z,7.50
2022-10-01T12:24:31.412Z,2.20
2022-10-01T12:25:31.398Z,2.10
2022-10-01T12:26:31.450Z,2.60
2022-10-01T12:27:31.436Z,3.70
2022-10-01T12:28:31.433Z,2.50
2022-10-01T12:29:31.389Z,1.90
2022-10-01T12:30:31.396Z,2.60
2022-10-01T12:31:31.429Z,2.00
2022-10-01T12:32:31.337Z,2.30
2022-10-01T12:33:31.389Z,2.50
2022-10-01T12:34:31.342Z,3.70
2022-10-01T12:35:31.297Z,3.10
2022-10-01T12:36:31.864Z,1.00
2022-10-01T12:37:31.558Z,2.90
2022-10-01T12:38:32.750Z,3.90
2022-10-01T12:39:31.289Z,1.80
2022-10-01T12:40:31.506Z,2.20
2022-10-01T12:41:31.228Z,1.70
2022-10-01T12:42:31.644Z,3.30
2022-10-01T12:43:31.203Z,1.40
2022-10-01T12:44:31.250Z,2.80
2022-10-01T12:45:31.230Z,2.30
2022-10-01T12:46:31.269Z,3.10
2022-10-01T12:47:32.144Z,1.90
2022-10-01T12:48:31.490Z,2.50
2022-10-01T12:49:31.499Z,1.40
2022-10-01T12:50:31.125Z,4.00
2022-10-01T12:51:31.122Z,3.50
2022-10-01T12:52:31.105Z,1.50
2022-10-01T12:53:31.103Z,2.10
2022-10-01T12:54:31.209Z,2.20
2022-10-01T12:55:31.141Z,2.20
2022-10-01T12:56:31.119Z,4.20
2022-10-01T12:57:31.064Z,1.90
2022-10-01T12:58:31.079Z,3.40
2022-10-01T12:59:31.043Z,4.20
2022-10-01T13:00:31.129Z,9.30
2022-10-01T13:01:31.076Z,7.30
2022-10-01T13:02:31.024Z,8.80